Time;durP1;ratioP1;P1;durP2;ratioP2;P2;SDS_P1;SDS_P2;PMS_P1;PMS_P2;Temp;Humidity;BMP_temperature;BMP_pressure;BME280_temperature;BME280_humidity;BME280_pressure;Samples;Min_cycle;Max_cycle;Signal;HPM_P1;HPM_P2
2022/02/10 00:03:29;;;;;;;;;;;;;;;0.72;81.14;100865.31;5094120;28;802;-58
2022/02/10 00:03:32;;;;;;;;;;;;;;;0.47;81.19;100879.53;5080224;28;949;-58
2022/02/10 00:14:12;;;;;;;;;;;;;;;-0.07;81.92;100866.59;5093526;28;751;-57
2022/02/10 00:17:08;;;;;;;;;;;;;;;-0.23;82.38;100857.16;5093794;28;948;-58
2022/02/10 00:19:49;;;;;;;;;;;;;;;-0.33;82.80;100866.31;5093413;28;879;-58
2022/02/10 00:22:33;;;;;;;;;;;;;;;-0.52;82.98;100865.63;5093451;28;1056;-58
2022/02/10 00:35:56;;;;;;;;;;;;;;;-0.64;86.06;100847.94;5093903;28;688;-58
2022/02/10 00:38:26;;;;;;;;;;;;;;;-0.57;85.29;100846.72;5093165;28;971;-58
2022/02/10 00:40:53;;;;;;;;;;;;;;;-0.59;86.10;100848.94;5093147;28;795;-58
2022/02/10 00:43:20;;;;;;;;;;;;;;;-0.38;85.75;100850.13;5093040;28;865;-58
2022/02/10 00:45:47;;;;;;;;;;;;;;;-0.39;85.30;100843.09;5093310;28;827;-58
2022/02/10 00:48:14;;;;;;;;;;;;;;;-0.31;85.09;100852.44;5092755;28;894;-58
2022/02/10 00:50:41;;;;;;;;;;;;;;;-0.19;84.09;100847.31;5092877;28;873;-58
2022/02/10 00:53:29;;;;;;;;;;;;;;;-0.27;83.55;100846.09;5074729;28;750;-58
2022/02/10 00:55:56;;;;;;;;;;;;;;;-0.40;83.53;100851.56;5092747;28;977;-58
2022/02/10 00:58:26;;;;;;;;;;;;;;;-0.26;83.66;100855.84;5092750;28;887;-58
2022/02/10 01:12:18;;;;;;;;;;;;;;;0.89;84.56;100856.47;5092697;28;1902;-58
2022/02/10 01:31:35;;;;;;;;;;;;;;;2.27;81.24;100859.16;5112781;28;1921;-58
2022/02/10 01:34:01;;;;;;;;;;;;;;;2.21;82.34;100853.84;5112559;28;830;-58
2022/02/10 01:36:28;;;;;;;;;;;;;;;2.31;82.03;100852.72;5112882;28;865;-58
2022/02/10 01:38:54;;;;;;;;;;;;;;;2.09;81.28;100861.03;5112480;28;806;-57
2022/02/10 01:58:10;;;;;;;;;;;;;;;1.41;82.25;100867.63;5112473;28;601;-58
2022/02/10 02:05:55;;;;;;;;;;;;;;;1.34;84.53;100863.72;5112073;28;656;-57
2022/02/10 02:08:34;;;;;;;;;;;;;;;1.41;85.42;100867.63;5112104;28;874;-58
2022/02/10 02:11:01;;;;;;;;;;;;;;;1.56;85.26;100865.59;5112220;28;1885;-58
2022/02/10 02:13:27;;;;;;;;;;;;;;;1.48;84.43;100863.63;5112192;28;862;-58
2022/02/10 02:15:53;;;;;;;;;;;;;;;1.31;84.11;100858.94;5112263;28;987;-57
2022/02/10 02:18:20;;;;;;;;;;;;;;;1.15;85.20;100862.06;5112194;28;945;-58
2022/02/10 02:20:48;;;;;;;;;;;;;;;1.03;85.99;100870.00;5111867;28;940;-58
2022/02/10 02:23:16;;;;;;;;;;;;;;;0.96;86.17;100865.00;5112089;28;802;-58
2022/02/10 02:25:44;;;;;;;;;;;;;;;0.96;86.90;100872.34;5112212;28;790;-58
2022/02/10 02:28:11;;;;;;;;;;;;;;;1.00;87.78;100871.44;5111789;28;1434;-57
2022/02/10 02:30:46;;;;;;;;;;;;;;;1.14;87.80;100865.09;5095119;28;847;-58
2022/02/10 02:39:32;;;;;;;;;;;;;;;1.46;86.90;100874.06;5116293;28;605;-57
2022/02/10 03:06:45;;;;;;;;;;;;;;;0.96;85.34;100866.91;5072660;28;1579;-58
2022/02/10 03:09:19;;;;;;;;;;;;;;;0.92;85.92;100865.94;5106400;28;894;-57
2022/02/10 03:11:46;;;;;;;;;;;;;;;0.93;85.51;100862.88;5115164;28;1889;-57
2022/02/10 03:14:17;;;;;;;;;;;;;;;0.82;85.42;100859.63;5115186;28;870;-58
2022/02/10 04:15:39;;;;;;;;;;;;;;;-0.41;87.95;100877.88;5114175;28;936;-58
2022/02/10 04:19:01;;;;;;;;;;;;;;;-0.36;87.98;100880.53;5113991;28;940;-58
2022/02/10 04:29:13;;;;;;;;;;;;;;;-0.37;88.30;100894.41;5113744;28;1226;-57
2022/02/10 05:24:48;;;;;;;;;;;;;;;0.38;87.15;100917.53;5112779;28;679;-59
2022/02/10 05:35:33;;;;;;;;;;;;;;;0.27;85.83;100929.78;5112628;28;628;-58
2022/02/10 05:38:38;;;;;;;;;;;;;;;0.22;85.86;100933.41;5112564;28;877;-58
2022/02/10 05:43:54;;;;;;;;;;;;;;;0.37;85.64;100943.16;5112338;28;684;-58
2022/02/10 06:48:52;;;;;;;;;;;;;;;3.53;73.17;100966.44;5095254;28;1188;-58
2022/02/10 06:53:53;;;;;;;;;;;;;;;3.98;71.19;100966.75;5111575;28;819;-58
2022/02/10 06:56:44;;;;;;;;;;;;;;;4.05;71.17;100968.97;5111680;28;861;-58
2022/02/10 07:02:49;;;;;;;;;;;;;;;4.33;71.10;100971.22;5111341;28;1581;-58
2022/02/10 07:07:32;;;;;;;;;;;;;;;5.03;68.73;100982.47;5111498;28;750;-58
2022/02/10 07:16:14;;;;;;;;;;;;;;;5.83;66.13;100979.38;5111769;28;1077;-58
2022/02/10 07:58:39;;;;;;;;;;;;;;;8.27;60.89;100935.84;5114460;28;688;-58
2022/02/10 09:16:55;;;;;;;;;;;;;;;10.78;52.81;100943.06;5113647;28;1017;-59
2022/02/10 09:25:14;;;;;;;;;;;;;;;10.76;50.29;100934.34;5113073;28;648;-59
2022/02/10 10:02:38;;;;;;;;;;;;;;;12.32;40.89;100893.81;5069507;28;739;-59
2022/02/10 10:05:24;;;;;;;;;;;;;;;12.09;41.56;100891.31;5069353;28;1099;-59
2022/02/10 10:16:19;;;;;;;;;;;;;;;12.24;41.00;100871.59;5112398;28;1200;-59
2022/02/10 10:19:23;;;;;;;;;;;;;;;12.46;40.66;100863.41;5111878;28;908;-59
2022/02/10 10:21:50;;;;;;;;;;;;;;;12.65;40.26;100859.47;5110985;28;1501;-59
2022/02/10 10:24:51;;;;;;;;;;;;;;;12.81;39.59;100862.72;5111879;28;930;-59
2022/02/10 10:27:53;;;;;;;;;;;;;;;12.93;39.03;100856.03;5111903;28;1204;-59
2022/02/10 10:46:34;;;;;;;;;;;;;;;12.94;39.10;100840.16;5089603;28;925;-59
2022/02/10 10:51:31;;;;;;;;;;;;;;;13.20;39.64;100822.34;5089485;28;1035;-59
2022/02/10 10:54:12;;;;;;;;;;;;;;;13.06;38.11;100820.38;5092432;28;1689;-59
2022/02/10 10:56:41;;;;;;;;;;;;;;;13.04;38.33;100822.75;5078246;28;1141;-59
2022/02/10 11:05:45;;;;;;;;;;;;;;;13.39;38.89;100818.41;5092958;28;1111;-59
2022/02/10 11:08:04;;;;;;;;;;;;;;;13.65;38.64;100815.19;5092656;28;797;-59
2022/02/10 11:41:24;;;;;;;;;;;;;;;13.46;38.08;100782.31;5114791;28;806;-60
2022/02/10 12:33:05;;;;;;;;;;;;;;;14.63;36.38;100762.84;5113800;28;1976;-59
2022/02/10 14:11:53;;;;;;;;;;;;;;;13.91;38.01;100737.34;5112094;28;633;-60
2022/02/10 14:14:10;;;;;;;;;;;;;;;14.12;37.72;100733.69;5111872;28;1465;-60
2022/02/10 14:16:42;;;;;;;;;;;;;;;14.20;37.22;100729.69;5112248;28;949;-59
2022/02/10 14:19:15;;;;;;;;;;;;;;;14.21;37.35;100726.50;5111895;28;882;-60
2022/02/10 14:27:20;;;;;;;;;;;;;;;14.94;36.59;100729.66;5114291;28;1411;-60
2022/02/10 14:29:47;;;;;;;;;;;;;;;14.77;36.45;100723.03;5116100;28;922;-60
2022/02/10 14:32:16;;;;;;;;;;;;;;;14.47;36.89;100725.16;5115995;28;1905;-60
2022/02/10 14:34:43;;;;;;;;;;;;;;;14.08;37.17;100720.63;5115991;28;904;-59
2022/02/10 14:37:32;;;;;;;;;;;;;;;13.56;38.39;100720.38;5116055;28;818;-59
2022/02/10 14:40:14;;;;;;;;;;;;;;;13.24;39.87;100718.44;5115997;28;1158;-59
2022/02/10 14:43:07;;;;;;;;;;;;;;;12.88;40.46;100725.97;5115867;28;913;-59
2022/02/10 16:18:23;;;;;;;;;;;;;;;5.65;62.33;100753.03;5114607;28;652;-59
2022/02/10 16:21:00;;;;;;;;;;;;;;;5.67;62.67;100748.00;5114174;28;867;-59
2022/02/10 16:23:29;;;;;;;;;;;;;;;6.29;60.55;100745.88;5114042;28;865;-59
2022/02/10 16:26:11;;;;;;;;;;;;;;;6.41;60.30;100743.09;5113960;28;919;-58
2022/02/10 16:28:40;;;;;;;;;;;;;;;6.29;60.45;100746.72;5113743;28;1364;-58
2022/02/10 16:31:11;;;;;;;;;;;;;;;6.23;59.97;100750.03;5113785;28;928;-59
2022/02/10 16:33:38;;;;;;;;;;;;;;;6.42;60.05;100738.38;5113719;28;1965;-59
2022/02/10 16:36:05;;;;;;;;;;;;;;;6.40;59.41;100740.69;5113890;28;810;-59
2022/02/10 16:38:32;;;;;;;;;;;;;;;6.26;59.69;100752.09;5114043;28;850;-59
2022/02/10 16:40:59;;;;;;;;;;;;;;;6.14;60.27;100747.44;5113767;28;872;-58
2022/02/10 16:43:25;;;;;;;;;;;;;;;6.11;60.56;100742.66;5113666;28;970;-58
2022/02/10 16:45:54;;;;;;;;;;;;;;;5.92;60.59;100744.06;5113802;28;869;-58
2022/02/10 16:48:21;;;;;;;;;;;;;;;5.67;61.44;100743.31;5113484;28;890;-58
2022/02/10 16:50:48;;;;;;;;;;;;;;;5.25;62.81;100740.88;5113390;28;996;-58
2022/02/10 16:53:19;;;;;;;;;;;;;;;4.85;63.51;100748.97;5113411;28;1890;-58
2022/02/10 16:55:56;;;;;;;;;;;;;;;4.52;64.12;100752.53;5113411;28;1041;-58
2022/02/10 17:20:25;;;;;;;;;;;;;;;3.79;68.53;100766.72;5112879;28;667;-59
2022/02/10 17:25:41;;;;;;;;;;;;;;;3.40;69.09;100769.53;5112866;28;640;-59
2022/02/10 17:28:10;;;;;;;;;;;;;;;3.41;69.81;100764.88;5128415;27;1410;-58
2022/02/10 17:34:03;;;;;;;;;;;;;;;3.45;70.22;100765.81;5112524;28;1969;-58
2022/02/10 17:36:25;;;;;;;;;;;;;;;3.45;69.52;100760.34;5110153;28;1610;-59
2022/02/10 17:42:06;;;;;;;;;;;;;;;3.43;70.12;100762.59;5112839;28;660;-58
2022/02/10 17:53:02;;;;;;;;;;;;;;;2.92;72.32;100737.94;5069551;28;1945;-59
2022/02/10 17:55:29;;;;;;;;;;;;;;;2.92;72.30;100737.94;5069580;28;967;-58
2022/02/10 17:57:56;;;;;;;;;;;;;;;2.92;71.57;100737.94;5083560;28;2452;-58
2022/02/10 18:00:25;;;;;;;;;;;;;;;2.95;71.54;100733.78;5112194;28;978;-58
2022/02/10 18:02:55;;;;;;;;;;;;;;;2.97;71.87;100737.78;5111694;28;909;-58
2022/02/10 18:08:10;;;;;;;;;;;;;;;2.89;71.51;100729.63;5112147;28;617;-58
2022/02/10 18:15:44;;;;;;;;;;;;;;;2.88;71.68;100730.75;5112105;28;924;-58
2022/02/10 18:18:21;;;;;;;;;;;;;;;2.84;71.83;100727.88;5112080;28;810;-58
2022/02/10 18:20:54;;;;;;;;;;;;;;;2.87;71.83;100732.66;5112033;28;904;-58
2022/02/10 18:23:30;;;;;;;;;;;;;;;2.83;72.42;100729.00;5112006;28;862;-58
2022/02/10 18:26:02;;;;;;;;;;;;;;;2.79;72.01;100722.59;5112179;28;968;-58
2022/02/10 18:28:48;;;;;;;;;;;;;;;2.86;71.93;100731.88;5111709;28;1076;-58
2022/02/10 19:06:22;;;;;;;;;;;;;;;1.78;75.08;100723.75;5111581;28;762;-58
2022/02/10 19:11:24;;;;;;;;;;;;;;;1.47;75.77;100732.03;5111527;28;1241;-59
2022/02/10 19:13:54;;;;;;;;;;;;;;;1.48;75.80;100735.59;5113220;28;874;-59
2022/02/10 19:16:22;;;;;;;;;;;;;;;1.32;75.58;100741.47;5115641;28;1028;-59
2022/02/10 19:18:49;;;;;;;;;;;;;;;1.33;76.41;100745.81;5115290;28;877;-59
2022/02/10 19:21:16;;;;;;;;;;;;;;;1.54;76.70;100743.28;5115272;28;795;-59
2022/02/10 19:23:43;;;;;;;;;;;;;;;1.54;76.86;100737.03;5115224;28;877;-59
2022/02/10 19:26:09;;;;;;;;;;;;;;;1.50;78.17;100741.53;5115359;28;841;-59
2022/02/10 19:28:35;;;;;;;;;;;;;;;1.45;77.99;100733.47;5115476;27;1444;-59
2022/02/10 19:31:04;;;;;;;;;;;;;;;1.46;78.01;100735.91;5074396;28;799;-59
2022/02/10 19:33:30;;;;;;;;;;;;;;;1.52;78.35;100729.19;5074258;28;1918;-59
2022/02/10 19:35:57;;;;;;;;;;;;;;;1.31;77.83;100737.16;5074195;28;855;-59
2022/02/10 19:38:26;;;;;;;;;;;;;;;1.07;79.16;100734.03;5074263;28;846;-59
2022/02/10 19:40:54;;;;;;;;;;;;;;;0.94;80.10;100727.56;5074222;28;862;-59
2022/02/10 19:43:21;;;;;;;;;;;;;;;0.86;80.07;100733.81;5074089;28;859;-59
2022/02/10 19:45:48;;;;;;;;;;;;;;;0.88;80.07;100728.84;5074415;28;799;-59
2022/02/10 19:48:14;;;;;;;;;;;;;;;0.97;80.96;100730.47;5074088;28;815;-59
2022/02/10 19:50:42;;;;;;;;;;;;;;;1.11;80.06;100724.94;5073839;28;823;-58
2022/02/10 19:53:10;;;;;;;;;;;;;;;1.14;79.74;100727.00;5073906;28;1890;-59
2022/02/10 19:55:40;;;;;;;;;;;;;;;1.16;79.98;100734.88;5073889;28;855;-59
2022/02/10 19:58:11;;;;;;;;;;;;;;;1.20;79.91;100731.19;5073604;28;883;-59
2022/02/10 20:00:42;;;;;;;;;;;;;;;1.31;79.75;100728.97;5073911;28;910;-59
2022/02/10 20:03:14;;;;;;;;;;;;;;;1.34;78.95;100727.53;5055716;28;1160;-59
2022/02/10 20:05:48;;;;;;;;;;;;;;;1.40;78.56;100726.25;5073614;28;895;-59
2022/02/10 20:08:16;;;;;;;;;;;;;;;1.33;79.28;100718.56;5055755;28;1166;-59
2022/02/10 20:10:43;;;;;;;;;;;;;;;1.28;79.83;100718.72;5073407;28;806;-59
2022/02/10 20:13:15;;;;;;;;;;;;;;;1.20;79.50;100722.22;5073533;28;1947;-59
2022/02/10 20:15:43;;;;;;;;;;;;;;;1.14;79.92;100715.31;5073652;28;1006;-59
2022/02/10 20:18:12;;;;;;;;;;;;;;;1.22;80.12;100712.63;5073589;28;874;-59
2022/02/10 20:20:38;;;;;;;;;;;;;;;1.31;79.38;100712.63;5073341;28;811;-59
2022/02/10 20:23:04;;;;;;;;;;;;;;;1.41;79.10;100712.34;5073506;28;909;-59
2022/02/10 20:25:31;;;;;;;;;;;;;;;1.55;78.55;100712.19;5073076;28;807;-59
2022/02/10 20:27:57;;;;;;;;;;;;;;;1.57;77.61;100709.94;5079288;28;1281;-59
2022/02/10 20:30:24;;;;;;;;;;;;;;;1.48;78.19;100708.34;5093617;28;807;-59
2022/02/10 20:32:51;;;;;;;;;;;;;;;1.43;78.76;100709.31;5093336;28;1906;-59
2022/02/10 20:35:18;;;;;;;;;;;;;;;1.36;78.27;100708.94;5093340;28;921;-59
2022/02/10 20:37:45;;;;;;;;;;;;;;;1.31;79.14;100701.75;5093205;28;914;-59
2022/02/10 20:40:12;;;;;;;;;;;;;;;1.12;78.35;100703.94;5093647;28;886;-59
2022/02/10 20:42:39;;;;;;;;;;;;;;;0.72;78.84;100702.03;5093349;28;894;-59
2022/02/10 20:45:06;;;;;;;;;;;;;;;0.45;79.07;100702.22;5093178;28;823;-59
2022/02/10 20:47:34;;;;;;;;;;;;;;;0.19;79.79;100694.72;5093030;28;941;-59
2022/02/10 20:50:02;;;;;;;;;;;;;;;0.32;80.17;100698.47;5093023;28;929;-59
2022/02/10 20:52:29;;;;;;;;;;;;;;;0.48;80.48;100693.47;5092924;28;1877;-59
2022/02/10 20:54:55;;;;;;;;;;;;;;;0.61;80.37;100687.13;5092836;28;847;-59
2022/02/10 20:57:22;;;;;;;;;;;;;;;0.59;80.32;100689.34;5092952;28;838;-59
2022/02/10 20:59:49;;;;;;;;;;;;;;;0.61;80.69;100692.56;5092931;28;803;-59
2022/02/10 21:02:17;;;;;;;;;;;;;;;0.51;81.56;100695.53;5092956;28;846;-59
2022/02/10 21:05:02;;;;;;;;;;;;;;;0.41;82.38;100691.19;5092980;28;834;-59
2022/02/10 21:07:37;;;;;;;;;;;;;;;0.52;82.71;100686.28;5092775;28;870;-59
2022/02/10 21:10:06;;;;;;;;;;;;;;;0.52;83.03;100689.00;5092866;28;818;-59
2022/02/10 21:12:37;;;;;;;;;;;;;;;0.56;82.40;100693.50;5092590;28;1878;-59
2022/02/10 21:15:08;;;;;;;;;;;;;;;0.57;83.19;100684.22;5092676;28;1042;-59
2022/02/10 21:17:35;;;;;;;;;;;;;;;0.74;82.25;100688.91;5074276;28;2506;-59
2022/02/10 21:20:04;;;;;;;;;;;;;;;0.74;81.74;100688.13;5092530;28;823;-59
2022/02/10 21:22:34;;;;;;;;;;;;;;;0.56;81.50;100681.81;5093341;28;764;-59
2022/02/10 21:25:09;;;;;;;;;;;;;;;0.30;81.98;100677.06;5092774;28;807;-59
2022/02/10 21:27:47;;;;;;;;;;;;;;;0.71;83.03;100675.16;5089224;28;1227;-59
2022/02/10 21:30:15;;;;;;;;;;;;;;;0.70;81.81;100676.25;5072077;28;950;-59
2022/02/10 21:32:51;;;;;;;;;;;;;;;0.50;81.46;100677.63;5072034;28;1918;-59
2022/02/10 21:35:30;;;;;;;;;;;;;;;0.38;82.39;100670.88;5071969;28;820;-59
2022/02/10 21:38:01;;;;;;;;;;;;;;;0.26;83.10;100673.34;5071880;28;905;-59
2022/02/10 21:40:34;;;;;;;;;;;;;;;0.31;83.34;100666.97;5071793;28;938;-59
2022/02/10 22:03:29;;;;;;;;;;;;;;;0.76;82.82;100669.56;5071734;28;672;-59
2022/02/10 22:20:45;;;;;;;;;;;;;;;0.94;81.48;100654.06;5071445;28;658;-59
2022/02/10 22:23:21;;;;;;;;;;;;;;;0.82;81.00;100660.94;5071348;28;970;-59
2022/02/10 22:25:47;;;;;;;;;;;;;;;0.52;81.76;100653.63;5071124;28;921;-59
2022/02/10 22:28:28;;;;;;;;;;;;;;;0.22;82.05;100658.78;5079387;28;1253;-59
2022/02/10 22:31:23;;;;;;;;;;;;;;;-0.11;82.58;100652.81;5073351;28;1332;-59
2022/02/10 22:33:49;;;;;;;;;;;;;;;-0.36;83.08;100660.47;5089621;28;1906;-59
2022/02/10 22:36:17;;;;;;;;;;;;;;;-0.23;85.17;100654.19;5091354;28;906;-59
2022/02/10 22:38:47;;;;;;;;;;;;;;;0.19;84.60;100654.78;5106837;28;911;-59
2022/02/10 22:41:14;;;;;;;;;;;;;;;0.48;83.69;100645.28;5091501;28;906;-59
2022/02/10 22:43:43;;;;;;;;;;;;;;;0.59;83.31;100651.25;5091402;28;844;-59
2022/02/10 22:46:10;;;;;;;;;;;;;;;0.46;83.17;100647.53;5091743;28;826;-59
2022/02/10 22:48:36;;;;;;;;;;;;;;;0.41;83.68;100642.25;5094542;28;799;-59
2022/02/10 22:51:03;;;;;;;;;;;;;;;0.45;83.67;100643.22;5077799;28;843;-59
2022/02/10 22:53:30;;;;;;;;;;;;;;;0.57;83.65;100635.25;5095251;28;1944;-58
2022/02/10 22:55:56;;;;;;;;;;;;;;;0.82;83.66;100630.22;5095860;28;820;-59
2022/02/10 22:58:23;;;;;;;;;;;;;;;1.02;83.57;100626.91;5095275;28;905;-59
2022/02/10 23:00:50;;;;;;;;;;;;;;;1.19;83.09;100625.28;5095123;28;973;-59
2022/02/10 23:03:18;;;;;;;;;;;;;;;1.31;82.60;100628.19;5076983;28;2398;-59
2022/02/10 23:05:43;;;;;;;;;;;;;;;1.33;82.27;100617.78;5095100;28;815;-59
2022/02/10 23:08:11;;;;;;;;;;;;;;;1.45;81.83;100619.84;5095126;28;838;-59
2022/02/10 23:10:46;;;;;;;;;;;;;;;1.50;81.02;100616.19;5095084;28;826;-59
2022/02/10 23:13:15;;;;;;;;;;;;;;;1.58;80.94;100618.91;5095326;28;1956;-59
2022/02/10 23:15:41;;;;;;;;;;;;;;;1.63;80.39;100615.22;5095256;28;963;-59
2022/02/10 23:18:11;;;;;;;;;;;;;;;1.58;80.51;100612.63;5095035;28;928;-59
2022/02/10 23:20:38;;;;;;;;;;;;;;;1.47;80.78;100609.44;5094893;28;928;-59
2022/02/10 23:23:05;;;;;;;;;;;;;;;1.32;81.16;100608.00;5094813;28;905;-59
2022/02/10 23:25:33;;;;;;;;;;;;;;;1.32;81.11;100605.28;5094806;28;839;-59
2022/02/10 23:27:59;;;;;;;;;;;;;;;1.47;80.80;100601.25;5088432;28;1461;-58
2022/02/10 23:30:27;;;;;;;;;;;;;;;1.65;80.35;100604.00;5056654;28;1173;-59
2022/02/10 23:32:59;;;;;;;;;;;;;;;1.64;80.50;100605.91;5074313;28;1918;-58
2022/02/10 23:36:21;;;;;;;;;;;;;;;1.62;80.69;100602.69;5074204;28;903;-59
2022/02/10 23:38:20;;;;;;;;;;;;;;;1.66;79.74;100600.94;5074129;28;1596;-59
2022/02/10 23:41:45;;;;;;;;;;;;;;;1.54;80.26;100600.81;5074428;28;850;-59
2022/02/10 23:43:39;;;;;;;;;;;;;;;1.28;80.22;100592.63;5069739;28;1222;-59
2022/02/10 23:46:05;;;;;;;;;;;;;;;1.09;81.62;100598.38;5073993;28;874;-59
2022/02/10 23:48:33;;;;;;;;;;;;;;;0.98;81.28;100587.81;5074010;28;846;-59
2022/02/10 23:51:00;;;;;;;;;;;;;;;0.86;81.53;100595.00;5074168;28;909;-59
2022/02/10 23:53:28;;;;;;;;;;;;;;;0.56;81.43;100589.31;5073857;28;1890;-59
2022/02/10 23:55:54;;;;;;;;;;;;;;;0.41;81.73;100587.84;5056046;28;807;-59
